createdAt,value
2023-05-06T00:00:04.622Z,944.84
2023-05-06T00:05:03.407Z,944.90
2023-05-06T00:10:04.710Z,944.92
2023-05-06T00:15:03.219Z,944.92
2023-05-06T00:20:04.456Z,945.02
2023-05-06T00:25:03.307Z,945.12
2023-05-06T00:30:04.445Z,945.18
2023-05-06T00:35:03.417Z,945.10
2023-05-06T00:40:04.803Z,945.14
2023-05-06T00:45:03.488Z,945.22
2023-05-06T00:50:06.193Z,945.23
2023-05-06T00:55:03.453Z,945.23
2023-05-06T01:00:06.241Z,945.27
2023-05-06T01:05:03.482Z,945.31
2023-05-06T01:10:04.417Z,945.33
2023-05-06T01:15:03.387Z,945.33
2023-05-06T01:20:04.591Z,945.57
2023-05-06T01:25:03.298Z,945.49
2023-05-06T01:30:04.632Z,945.53
2023-05-06T01:35:03.456Z,945.65
2023-05-06T01:40:04.481Z,945.61
2023-05-06T01:45:03.217Z,945.65
2023-05-06T01:50:04.390Z,945.67
2023-05-06T01:55:04.281Z,945.72
2023-05-06T02:00:04.533Z,945.70
2023-05-06T02:05:03.435Z,945.69
2023-05-06T02:10:04.622Z,945.70
2023-05-06T02:15:03.188Z,945.69
2023-05-06T02:20:04.809Z,945.70
2023-05-06T02:25:04.404Z,945.70
2023-05-06T02:30:04.612Z,945.69
2023-05-06T02:35:03.130Z,945.69
2023-05-06T02:40:05.446Z,945.70
2023-05-06T02:45:03.283Z,945.72
2023-05-06T02:50:04.470Z,945.78
2023-05-06T02:55:03.265Z,945.69
2023-05-06T03:00:04.594Z,945.69
2023-05-06T03:05:03.357Z,945.63
2023-05-06T03:10:04.369Z,945.65
2023-05-06T03:15:03.183Z,945.65
2023-05-06T03:20:04.450Z,945.67
2023-05-06T03:25:03.356Z,945.63
2023-05-06T03:30:04.509Z,945.65
2023-05-06T03:35:03.480Z,945.70
2023-05-06T03:40:04.395Z,945.78
2023-05-06T03:45:03.188Z,945.82
2023-05-06T03:50:04.458Z,945.84
2023-05-06T03:55:03.405Z,945.88
2023-05-06T04:00:04.740Z,945.86
2023-05-06T04:05:03.343Z,945.82
2023-05-06T04:10:05.079Z,945.82
2023-05-06T04:15:03.179Z,945.80
2023-05-06T04:20:04.317Z,945.84
2023-05-06T04:25:03.382Z,945.86
2023-05-06T04:30:04.432Z,945.82
2023-05-06T04:35:03.436Z,945.74
2023-05-06T04:40:04.580Z,945.78
2023-05-06T04:45:03.167Z,945.67
2023-05-06T04:50:04.356Z,945.63
2023-05-06T04:55:03.346Z,945.59
2023-05-06T05:00:04.370Z,945.53
2023-05-06T05:05:03.313Z,945.51
2023-05-06T05:10:04.507Z,945.45
2023-05-06T05:15:03.217Z,945.37
2023-05-06T05:20:04.377Z,945.31
2023-05-06T05:25:05.626Z,945.31
2023-05-06T05:30:04.446Z,945.25
2023-05-06T05:35:03.346Z,945.22
2023-05-06T05:40:04.505Z,945.14
2023-05-06T05:45:03.228Z,945.18
2023-05-06T05:50:04.510Z,945.18
2023-05-06T05:55:03.310Z,945.08
2023-05-06T06:00:04.425Z,944.98
2023-05-06T06:05:03.351Z,944.98
2023-05-06T06:10:04.594Z,944.98
2023-05-06T06:15:03.358Z,944.96
2023-05-06T06:20:04.468Z,944.92
2023-05-06T06:25:03.229Z,944.80
2023-05-06T06:30:04.374Z,944.74
2023-05-06T06:35:03.391Z,944.68
2023-05-06T06:40:04.298Z,944.63
2023-05-06T06:45:03.231Z,944.63
2023-05-06T06:50:04.413Z,944.63
2023-05-06T06:55:03.251Z,944.55
2023-05-06T07:00:04.573Z,944.55
2023-05-06T07:05:03.361Z,944.59
2023-05-06T07:10:04.492Z,944.67
2023-05-06T07:15:04.248Z,944.59
2023-05-06T07:20:04.377Z,944.67
2023-05-06T07:25:03.226Z,944.67
2023-05-06T07:30:04.423Z,944.63
2023-05-06T07:35:03.419Z,944.63
2023-05-06T07:40:04.264Z,944.61
2023-05-06T07:45:03.193Z,944.63
2023-05-06T07:50:04.304Z,944.65
2023-05-06T07:55:03.228Z,944.70
2023-05-06T08:00:04.454Z,944.70
2023-05-06T08:05:03.385Z,944.67
2023-05-06T08:10:04.440Z,944.76
2023-05-06T08:15:03.254Z,944.80
2023-05-06T08:20:04.332Z,944.78
2023-05-06T08:25:03.403Z,944.78
2023-05-06T08:30:04.417Z,944.76
2023-05-06T08:35:03.368Z,944.68
2023-05-06T08:40:04.314Z,944.74
2023-05-06T08:45:04.283Z,944.82
2023-05-06T08:50:04.305Z,944.92
2023-05-06T08:55:03.265Z,945.02
2023-05-06T09:00:04.436Z,945.00
2023-05-06T09:05:03.322Z,945.04
2023-05-06T09:10:04.506Z,945.14
2023-05-06T09:15:03.215Z,945.16
2023-05-06T09:20:04.367Z,945.12
2023-05-06T09:25:03.373Z,945.18
2023-05-06T09:30:04.499Z,945.23
2023-05-06T09:35:03.299Z,945.25
2023-05-06T09:40:04.625Z,945.29
2023-05-06T09:45:03.161Z,945.29
2023-05-06T09:50:04.387Z,945.39
2023-05-06T09:55:03.304Z,945.45
2023-05-06T10:00:04.620Z,945.59
2023-05-06T10:05:03.481Z,945.70
2023-05-06T10:10:04.571Z,945.78
2023-05-06T10:15:03.440Z,945.84
2023-05-06T10:20:04.382Z,945.90
2023-05-06T10:25:03.222Z,946.06
2023-05-06T10:30:05.503Z,946.16
2023-05-06T10:35:03.315Z,946.16
2023-05-06T10:40:04.472Z,946.06
2023-05-06T10:45:03.141Z,946.00
2023-05-06T10:50:04.029Z,946.02
2023-05-06T10:55:03.235Z,945.98
2023-05-06T11:00:04.443Z,945.94
2023-05-06T11:05:03.302Z,945.88
2023-05-06T11:10:04.755Z,945.84
2023-05-06T11:15:03.368Z,945.86
2023-05-06T11:20:04.009Z,945.98
2023-05-06T11:25:03.273Z,946.04
2023-05-06T11:30:04.528Z,946.16
2023-05-06T11:35:03.409Z,946.18
2023-05-06T11:40:04.397Z,946.08
2023-05-06T11:45:03.404Z,946.06
2023-05-06T11:50:04.313Z,946.04
2023-05-06T11:55:03.306Z,946.04
2023-05-06T12:00:04.413Z,946.08
2023-05-06T12:05:03.409Z,946.16
2023-05-06T12:10:04.539Z,946.23
2023-05-06T12:15:03.314Z,946.27
2023-05-06T12:20:04.505Z,946.29
2023-05-06T12:25:04.255Z,946.37
2023-05-06T12:30:04.867Z,946.33
2023-05-06T12:35:03.408Z,946.29
2023-05-06T12:40:04.519Z,946.29
2023-05-06T12:45:03.357Z,946.41
2023-05-06T12:50:04.598Z,946.51
2023-05-06T12:55:03.228Z,946.55
2023-05-06T13:00:04.381Z,946.57
2023-05-06T13:05:03.284Z,946.65
2023-05-06T13:10:04.448Z,946.67
2023-05-06T13:15:03.406Z,946.63
2023-05-06T13:20:05.553Z,946.65
2023-05-06T13:25:03.252Z,946.73
2023-05-06T13:30:04.464Z,946.76
2023-05-06T13:35:03.338Z,946.74
2023-05-06T13:40:09.822Z,946.78
2023-05-06T13:45:03.118Z,946.76
2023-05-06T13:50:04.527Z,946.80
2023-05-06T13:55:03.240Z,946.74
2023-05-06T14:00:04.465Z,946.76
2023-05-06T14:05:03.289Z,946.84
2023-05-06T14:10:04.733Z,946.71
2023-05-06T14:15:03.366Z,946.71
2023-05-06T14:20:04.396Z,946.71
2023-05-06T14:25:03.223Z,946.61
2023-05-06T14:30:05.933Z,946.59
2023-05-06T14:35:03.312Z,946.51
2023-05-06T14:40:04.545Z,946.39
2023-05-06T14:45:03.391Z,946.23
2023-05-06T14:50:13.418Z,946.04
2023-05-06T14:55:03.191Z,945.96
2023-05-06T15:00:04.423Z,945.90
2023-05-06T15:05:04.171Z,945.82
2023-05-06T15:10:04.600Z,945.74
2023-05-06T15:15:03.453Z,945.57
2023-05-06T15:20:12.046Z,945.55
2023-05-06T15:25:03.221Z,945.45
2023-05-06T15:30:04.512Z,945.39
2023-05-06T15:35:03.389Z,945.35
2023-05-06T15:40:05.262Z,945.22
2023-05-06T15:45:03.365Z,945.16
2023-05-06T15:50:14.019Z,945.02
2023-05-06T15:55:03.186Z,944.86
2023-05-06T16:00:05.741Z,944.80
2023-05-06T16:05:03.352Z,944.78
2023-05-06T16:10:04.443Z,944.72
2023-05-06T16:15:03.457Z,944.65
2023-05-06T16:20:05.298Z,944.63
2023-05-06T16:25:03.224Z,944.57
2023-05-06T16:30:04.424Z,944.49
2023-05-06T16:35:04.352Z,944.39
2023-05-06T16:40:09.683Z,944.27
2023-05-06T16:45:03.387Z,944.21
2023-05-06T16:50:04.102Z,944.23
2023-05-06T16:55:03.216Z,944.23
2023-05-06T17:00:04.349Z,944.21
2023-05-06T17:05:03.355Z,944.12
2023-05-06T17:10:05.895Z,943.98
2023-05-06T17:15:03.373Z,943.84
2023-05-06T17:20:04.634Z,943.86
2023-05-06T17:25:03.251Z,943.86
2023-05-06T17:30:04.518Z,943.84
2023-05-06T17:35:03.295Z,943.78
2023-05-06T17:40:05.185Z,943.70
2023-05-06T17:45:03.431Z,943.65
2023-05-06T17:50:04.392Z,943.51
2023-05-06T17:55:15.353Z,943.65
2023-05-06T18:00:05.607Z,943.68
2023-05-06T18:05:03.259Z,943.66
2023-05-06T18:10:04.532Z,943.72
2023-05-06T18:15:03.192Z,943.76
2023-05-06T18:20:04.264Z,943.72
2023-05-06T18:25:03.411Z,943.74
2023-05-06T18:30:04.338Z,943.68
2023-05-06T18:35:03.531Z,943.70
2023-05-06T18:40:04.605Z,943.65
2023-05-06T18:45:03.424Z,943.68
2023-05-06T18:50:04.422Z,943.66
2023-05-06T18:55:03.231Z,943.65
2023-05-06T19:00:04.404Z,943.61
2023-05-06T19:05:03.279Z,943.63
2023-05-06T19:10:04.547Z,943.61
2023-05-06T19:15:03.374Z,943.65
2023-05-06T19:20:04.508Z,943.70
2023-05-06T19:25:03.420Z,943.70
2023-05-06T19:30:04.464Z,943.80
2023-05-06T19:35:03.333Z,943.88
2023-05-06T19:40:04.633Z,943.90
2023-05-06T19:45:03.414Z,943.94
2023-05-06T19:50:04.990Z,944.00
2023-05-06T19:55:03.396Z,944.04
2023-05-06T20:00:04.422Z,944.00
2023-05-06T20:05:03.296Z,944.12
2023-05-06T20:10:04.407Z,944.15
2023-05-06T20:15:04.555Z,944.17
2023-05-06T20:20:04.957Z,944.19
2023-05-06T20:25:03.575Z,944.19
2023-05-06T20:30:04.600Z,944.17
2023-05-06T20:35:03.302Z,944.19
2023-05-06T20:40:05.039Z,944.25
2023-05-06T20:45:03.310Z,944.17
2023-05-06T20:50:04.876Z,944.15
2023-05-06T20:55:03.258Z,944.02
2023-05-06T21:00:04.457Z,944.06
2023-05-06T21:05:03.356Z,944.00
2023-05-06T21:10:04.256Z,944.10
2023-05-06T21:15:03.381Z,944.15
2023-05-06T21:20:06.185Z,944.13
2023-05-06T21:25:03.185Z,944.13
2023-05-06T21:30:04.345Z,944.08
2023-05-06T21:35:03.323Z,944.02
2023-05-06T21:40:04.651Z,943.92
2023-05-06T21:45:03.335Z,943.94
2023-05-06T21:50:04.649Z,943.94
2023-05-06T21:55:03.228Z,943.92
2023-05-06T22:00:04.824Z,944.08
2023-05-06T22:05:03.368Z,944.00
2023-05-06T22:10:04.428Z,943.94
2023-05-06T22:15:03.400Z,943.80
2023-05-06T22:20:04.666Z,943.80
2023-05-06T22:25:03.244Z,943.94
2023-05-06T22:30:04.324Z,943.82
2023-05-06T22:35:03.221Z,943.96
2023-05-06T22:40:04.466Z,944.10
2023-05-06T22:45:03.340Z,944.12
2023-05-06T22:50:04.834Z,944.17
2023-05-06T22:55:04.188Z,944.08
2023-05-06T23:00:04.415Z,943.96
2023-05-06T23:05:03.276Z,943.94
2023-05-06T23:10:04.560Z,943.94
2023-05-06T23:15:03.273Z,943.92
2023-05-06T23:20:04.707Z,943.66
2023-05-06T23:25:03.413Z,943.47
2023-05-06T23:30:04.541Z,943.43
2023-05-06T23:35:03.206Z,943.63
2023-05-06T23:40:04.665Z,943.49
2023-05-06T23:45:03.328Z,943.41
2023-05-06T23:50:04.567Z,943.31
2023-05-06T23:55:03.155Z,943.25
